Time;durP1;ratioP1;P1;durP2;ratioP2;P2;SDS_P1;SDS_P2;PMS_P1;PMS_P2;Temp;Humidity;BMP_temperature;BMP_pressure;BME280_temperature;BME280_humidity;BME280_pressure;Samples;Min_cycle;Max_cycle;Signal;HPM_P1;HPM_P2
2021/01/05 00:00:15;;;;;;;21.70;18.60;;;2.80;99.90;;;;;;5049714;28;20196;-66
2021/01/05 00:02:41;;;;;;;23.97;19.97;;;2.80;99.90;;;;;;5047404;28;20275;-66
2021/01/05 00:05:08;;;;;;;28.03;21.10;;;2.80;99.90;;;;;;5051647;28;20538;-66
2021/01/05 00:07:33;;;;;;;20.73;17.80;;;2.80;99.90;;;;;;5045290;28;20184;-66
2021/01/05 00:09:59;;;;;;;26.43;20.03;;;2.70;99.90;;;;;;5047630;28;21004;-66
2021/01/05 00:12:24;;;;;;;21.40;18.70;;;2.70;99.90;;;;;;5049975;28;20196;-66
2021/01/05 00:14:50;;;;;;;24.90;19.57;;;2.70;99.90;;;;;;5049247;28;20541;-66
2021/01/05 00:17:18;;;;;;;23.33;19.53;;;2.70;99.90;;;;;;5047078;28;20258;-66
2021/01/05 00:19:44;;;;;;;22.10;18.70;;;2.70;99.90;;;;;;5040812;28;20193;-66
2021/01/05 00:22:10;;;;;;;23.00;19.67;;;2.70;99.90;;;;;;5048139;28;20459;-66
2021/01/05 00:24:36;;;;;;;26.00;20.70;;;2.70;99.90;;;;;;5045014;28;20473;-66
2021/01/05 00:27:02;;;;;;;24.20;19.63;;;2.80;99.90;;;;;;5044042;28;20195;-66
2021/01/05 00:29:28;;;;;;;21.27;17.43;;;2.70;99.90;;;;;;5042224;28;20286;-66
2021/01/05 00:32:08;;;;;;;24.40;20.43;;;2.70;99.90;;;;;;5042958;28;20951;-66
2021/01/05 00:34:33;;;;;;;23.03;18.77;;;2.70;99.90;;;;;;5046990;28;20216;-66
2021/01/05 00:37:00;;;;;;;27.33;19.10;;;2.70;99.90;;;;;;5048507;28;20849;-66
2021/01/05 00:39:26;;;;;;;25.30;20.07;;;2.70;99.90;;;;;;5047682;28;20196;-66
2021/01/05 00:41:51;;;;;;;29.17;20.00;;;2.70;99.90;;;;;;5047105;28;20550;-66
2021/01/05 00:44:17;;;;;;;25.93;20.80;;;2.70;99.90;;;;;;5045271;28;20181;-66
2021/01/05 00:46:42;;;;;;;27.60;21.80;;;2.70;99.90;;;;;;5048383;28;20636;-66
2021/01/05 00:49:08;;;;;;;25.70;19.33;;;2.70;99.90;;;;;;5048006;28;20270;-66
2021/01/05 00:51:34;;;;;;;24.63;19.90;;;2.80;99.90;;;;;;5047922;28;20191;-66
2021/01/05 00:53:59;;;;;;;25.87;18.93;;;2.80;99.90;;;;;;5049945;28;20457;-66
2021/01/05 00:56:25;;;;;;;26.63;20.87;;;2.70;99.90;;;;;;5045152;28;20184;-66
2021/01/05 00:58:51;;;;;;;24.83;18.80;;;2.70;99.90;;;;;;5048375;28;20181;-66
2021/01/05 01:01:20;;;;;;;23.07;19.43;;;2.70;99.90;;;;;;5044855;28;20689;-66
2021/01/05 01:03:48;;;;;;;27.43;21.50;;;2.80;99.90;;;;;;5048484;28;20427;-66
2021/01/05 01:06:13;;;;;;;23.87;17.90;;;2.80;99.90;;;;;;5049472;28;20804;-66
2021/01/05 01:08:38;;;;;;;24.10;19.17;;;2.70;99.90;;;;;;5044041;28;20471;-66
2021/01/05 01:11:04;;;;;;;24.50;18.77;;;2.70;99.90;;;;;;5045972;28;20197;-66
2021/01/05 01:13:29;;;;;;;27.60;19.77;;;2.70;99.90;;;;;;5041441;28;20188;-66
2021/01/05 01:15:55;;;;;;;26.50;20.00;;;2.70;99.90;;;;;;5045535;28;20180;-66
2021/01/05 01:18:20;;;;;;;25.80;19.20;;;2.70;99.90;;;;;;5047001;28;20192;-66
2021/01/05 01:20:46;;;;;;;27.40;20.27;;;2.70;99.90;;;;;;5046911;28;20653;-66
2021/01/05 01:23:12;;;;;;;26.27;21.03;;;2.70;99.90;;;;;;5045113;28;20276;-66
2021/01/05 01:25:37;;;;;;;24.67;19.87;;;2.70;99.90;;;;;;5045829;28;20203;-66
2021/01/05 01:28:03;;;;;;;28.27;20.87;;;2.80;99.90;;;;;;5043931;28;20570;-66
2021/01/05 01:30:28;;;;;;;26.40;20.00;;;2.70;99.90;;;;;;5046506;28;20208;-66
2021/01/05 01:32:54;;;;;;;25.70;21.00;;;2.70;99.90;;;;;;5043835;28;20898;-66
2021/01/05 01:35:19;;;;;;;28.90;21.27;;;2.70;99.90;;;;;;5023129;28;20238;-66
2021/01/05 01:37:45;;;;;;;28.50;19.83;;;2.70;99.90;;;;;;5048318;28;20567;-66
2021/01/05 01:40:12;;;;;;;24.80;19.97;;;2.70;99.90;;;;;;5028195;28;20207;-66
2021/01/05 01:42:37;;;;;;;24.43;20.77;;;2.80;99.90;;;;;;5030463;28;20199;-66
2021/01/05 01:45:05;;;;;;;24.70;20.63;;;2.70;99.90;;;;;;5045422;28;20435;-66
2021/01/05 01:47:42;;;;;;;25.17;20.77;;;2.70;99.90;;;;;;5047321;28;20192;-66
2021/01/05 01:50:11;;;;;;;22.50;20.17;;;2.80;99.90;;;;;;5044927;28;20478;-66
2021/01/05 01:52:51;;;;;;;24.27;20.53;;;2.80;99.90;;;;;;5045035;28;20443;-66
2021/01/05 01:55:34;;;;;;;25.90;20.03;;;2.80;99.90;;;;;;5036382;28;20454;-66
2021/01/05 01:58:32;;;;;;;23.80;17.70;;;2.80;99.90;;;;;;5044517;28;20446;-66
2021/01/05 02:01:09;;;;;;;25.00;20.43;;;2.80;99.90;;;;;;5039859;28;20434;-66
2021/01/05 02:04:06;;;;;;;23.37;20.30;;;2.70;99.90;;;;;;5044661;28;20496;-66
2021/01/05 02:06:59;;;;;;;23.23;19.50;;;2.80;99.90;;;;;;5033109;28;20442;-66
2021/01/05 02:10:02;;;;;;;23.70;18.57;;;2.70;99.90;;;;;;5047529;28;20501;-66
2021/01/05 02:12:41;;;;;;;24.07;19.93;;;2.70;99.90;;;;;;5039401;28;20537;-66
2021/01/05 02:15:28;;;;;;;22.53;18.60;;;2.80;99.90;;;;;;5047071;28;20465;-66
2021/01/05 02:18:13;;;;;;;23.93;19.30;;;2.80;99.90;;;;;;5042075;28;20445;-66
2021/01/05 02:20:50;;;;;;;22.00;18.83;;;2.80;99.90;;;;;;5045258;28;20438;-66
2021/01/05 02:23:31;;;;;;;25.00;20.57;;;2.80;99.90;;;;;;5045309;28;20920;-66
2021/01/05 02:26:12;;;;;;;26.53;20.67;;;2.70;99.90;;;;;;5039538;28;20431;-66
2021/01/05 02:28:44;;;;;;;23.30;19.30;;;2.80;99.90;;;;;;5045268;28;20454;-66
2021/01/05 02:31:23;;;;;;;24.40;20.03;;;2.80;99.90;;;;;;5043610;28;20446;-66
2021/01/05 02:34:15;;;;;;;26.00;20.10;;;2.70;99.90;;;;;;5040298;28;20807;-66
2021/01/05 02:37:09;;;;;;;24.53;19.70;;;2.80;99.90;;;;;;5043113;28;20954;-66
2021/01/05 02:39:47;;;;;;;24.20;19.23;;;2.80;99.90;;;;;;5045632;28;20458;-66
2021/01/05 02:42:24;;;;;;;29.43;21.00;;;2.80;99.90;;;;;;5047644;28;20470;-66
2021/01/05 02:45:11;;;;;;;25.80;21.30;;;2.80;99.90;;;;;;5045921;28;20437;-66
2021/01/05 02:48:11;;;;;;;24.73;19.70;;;2.80;99.90;;;;;;5044402;28;20436;-66
2021/01/05 02:51:16;;;;;;;20.83;18.50;;;2.80;99.90;;;;;;5044299;28;20439;-66
2021/01/05 02:54:01;;;;;;;28.80;21.83;;;2.80;99.90;;;;;;5045775;28;20438;-66
2021/01/05 02:57:02;;;;;;;24.90;20.30;;;2.80;99.90;;;;;;5044045;28;20427;-66
2021/01/05 03:00:25;;;;;;;24.67;20.00;;;2.80;99.90;;;;;;5041379;28;20431;-66
2021/01/05 03:03:16;;;;;;;26.30;20.47;;;2.80;99.90;;;;;;5043439;28;20475;-66
2021/01/05 03:05:47;;;;;;;23.77;19.60;;;2.80;99.90;;;;;;5043682;28;20426;-66
2021/01/05 03:08:16;;;;;;;25.90;21.00;;;2.80;99.90;;;;;;5042844;28;20741;-66
2021/01/05 03:10:55;;;;;;;26.50;20.40;;;2.80;99.90;;;;;;5043355;28;20863;-66
2021/01/05 03:13:35;;;;;;;26.50;20.40;;;2.80;99.90;;;;;;5046094;28;20450;-66
2021/01/05 03:16:15;;;;;;;27.70;20.53;;;2.70;99.90;;;;;;5037481;28;20924;-66
2021/01/05 03:18:44;;;;;;;25.20;20.70;;;2.70;99.90;;;;;;5045742;28;21085;-66
2021/01/05 03:21:20;;;;;;;23.80;20.50;;;2.80;99.90;;;;;;5046245;28;20450;-66
2021/01/05 03:23:49;;;;;;;28.00;20.73;;;2.70;99.90;;;;;;5044604;28;20777;-66
2021/01/05 03:26:18;;;;;;;27.43;20.10;;;2.80;99.90;;;;;;5034876;28;20430;-66
2021/01/05 03:28:44;;;;;;;25.27;20.33;;;2.70;99.90;;;;;;5030036;28;20823;-66
2021/01/05 03:31:37;;;;;;;24.10;19.47;;;2.70;99.90;;;;;;5042923;28;20447;-66
2021/01/05 03:34:04;;;;;;;25.67;18.97;;;2.70;99.90;;;;;;5048979;28;20180;-66
2021/01/05 03:36:30;;;;;;;24.73;19.80;;;2.80;99.90;;;;;;5045960;28;20485;-66
2021/01/05 03:38:55;;;;;;;25.50;20.13;;;2.80;99.90;;;;;;5051485;28;20462;-66
2021/01/05 03:41:21;;;;;;;28.80;20.60;;;2.80;99.90;;;;;;5047439;28;20571;-66
2021/01/05 03:43:47;;;;;;;27.07;19.90;;;2.70;99.90;;;;;;5046893;28;20202;-66
2021/01/05 03:46:13;;;;;;;26.53;20.57;;;2.70;99.90;;;;;;5048760;28;20526;-66
2021/01/05 03:48:39;;;;;;;27.13;21.07;;;2.80;99.90;;;;;;5046007;28;20208;-66
2021/01/05 03:51:05;;;;;;;25.63;20.40;;;2.80;99.90;;;;;;5046181;28;20462;-66
2021/01/05 03:53:31;;;;;;;26.30;19.47;;;2.80;99.90;;;;;;5051477;28;20227;-65
2021/01/05 03:55:56;;;;;;;25.10;18.93;;;2.80;99.90;;;;;;5048292;28;20435;-65
2021/01/05 03:58:22;;;;;;;23.27;18.60;;;2.80;99.90;;;;;;5046990;28;20680;-65
2021/01/05 04:00:48;;;;;;;27.13;22.70;;;2.80;99.90;;;;;;5049861;28;20233;-65
2021/01/05 04:03:13;;;;;;;22.13;18.80;;;2.80;99.90;;;;;;5047432;28;20215;-65
2021/01/05 04:05:39;;;;;;;26.90;19.50;;;2.80;99.90;;;;;;5045785;28;20210;-65
2021/01/05 04:08:05;;;;;;;27.00;19.90;;;2.80;99.90;;;;;;5047150;28;21100;-66
2021/01/05 04:10:30;;;;;;;26.40;20.50;;;2.80;99.90;;;;;;5049626;28;20216;-65
2021/01/05 04:12:56;;;;;;;24.90;20.20;;;2.80;99.90;;;;;;5049424;28;20465;-65
2021/01/05 04:15:24;;;;;;;26.70;19.37;;;2.80;99.90;;;;;;5045869;28;20566;-65
2021/01/05 04:17:54;;;;;;;22.90;17.53;;;2.80;99.90;;;;;;5047724;28;20249;-65
2021/01/05 04:20:21;;;;;;;25.07;19.90;;;2.80;99.90;;;;;;5050295;28;20647;-65
2021/01/05 04:22:46;;;;;;;24.07;18.90;;;2.80;99.90;;;;;;5045428;28;20919;-65
2021/01/05 04:25:13;;;;;;;25.80;19.33;;;2.80;99.90;;;;;;5044584;28;20500;-65
2021/01/05 04:27:39;;;;;;;24.63;19.13;;;2.80;99.90;;;;;;5046844;28;20184;-65
2021/01/05 04:30:06;;;;;;;27.13;19.60;;;2.80;99.90;;;;;;5047893;28;20525;-66
2021/01/05 04:32:31;;;;;;;28.80;21.50;;;2.80;99.90;;;;;;5046694;28;20188;-66
2021/01/05 04:34:57;;;;;;;27.37;21.23;;;2.80;99.90;;;;;;5044359;28;20443;-65
2021/01/05 04:37:23;;;;;;;25.43;19.83;;;2.80;99.90;;;;;;5048972;28;20591;-65
2021/01/05 04:39:48;;;;;;;25.07;20.10;;;2.80;99.90;;;;;;5043647;28;20309;-65
2021/01/05 04:42:27;;;;;;;28.10;20.47;;;2.80;99.90;;;;;;5046960;28;20410;-66
2021/01/05 04:45:03;;;;;;;28.30;21.20;;;2.80;99.90;;;;;;5046560;28;20193;-65
2021/01/05 04:47:44;;;;;;;27.23;18.67;;;2.80;99.90;;;;;;5045876;28;20450;-65
2021/01/05 04:50:14;;;;;;;27.70;20.10;;;2.80;99.90;;;;;;5021954;28;20808;-65
2021/01/05 04:52:46;;;;;;;27.40;20.97;;;2.80;99.90;;;;;;5041011;28;20911;-65
2021/01/05 04:55:32;;;;;;;29.80;21.93;;;2.80;99.90;;;;;;5030452;28;20466;-65
2021/01/05 04:58:10;;;;;;;27.50;20.40;;;2.80;99.90;;;;;;5041342;28;20848;-66
2021/01/05 05:00:39;;;;;;;25.30;19.53;;;2.80;99.90;;;;;;5037453;28;20446;-65
2021/01/05 05:03:37;;;;;;;27.20;20.20;;;2.80;99.90;;;;;;5044380;28;20439;-65
2021/01/05 05:06:24;;;;;;;29.00;21.20;;;2.80;99.90;;;;;;5004223;28;20939;-65
2021/01/05 05:09:13;;;;;;;26.77;19.97;;;2.80;99.90;;;;;;5045012;28;20557;-65
2021/01/05 05:11:57;;;;;;;29.47;21.07;;;2.80;99.90;;;;;;5041167;28;20485;-65
2021/01/05 05:15:06;;;;;;;24.33;19.40;;;2.80;99.90;;;;;;5043732;28;20518;-65
2021/01/05 05:17:50;;;;;;;26.43;20.93;;;2.80;99.90;;;;;;5018103;28;20442;-65
2021/01/05 05:20:43;;;;;;;28.93;21.47;;;2.70;99.90;;;;;;5047643;28;20450;-65
2021/01/05 05:23:42;;;;;;;25.80;19.07;;;2.80;99.90;;;;;;5049574;28;20446;-66
2021/01/05 05:26:27;;;;;;;24.37;18.40;;;2.80;99.90;;;;;;5044498;28;20446;-65
2021/01/05 05:29:14;;;;;;;29.33;20.80;;;2.80;99.90;;;;;;5045475;28;20527;-66
2021/01/05 05:31:40;;;;;;;28.13;19.70;;;2.90;99.90;;;;;;5044066;28;20887;-65
2021/01/05 05:34:16;;;;;;;28.47;21.10;;;2.90;99.90;;;;;;5041211;28;20502;-66
2021/01/05 05:37:07;;;;;;;31.13;22.57;;;2.90;99.90;;;;;;5043930;28;20454;-65
2021/01/05 05:40:00;;;;;;;31.53;22.43;;;2.90;99.90;;;;;;5049100;28;20447;-65
2021/01/05 05:43:00;;;;;;;31.07;22.17;;;2.90;99.90;;;;;;5043576;28;20481;-66
2021/01/05 05:45:33;;;;;;;30.53;21.20;;;2.80;99.90;;;;;;5049564;28;20434;-65
2021/01/05 05:48:19;;;;;;;29.40;20.83;;;2.90;99.90;;;;;;5043074;28;20451;-65
2021/01/05 05:51:06;;;;;;;26.30;19.80;;;2.80;99.90;;;;;;5030054;28;20951;-65
2021/01/05 05:53:40;;;;;;;28.80;21.47;;;2.80;99.90;;;;;;5060924;28;20926;-65
2021/01/05 05:56:32;;;;;;;33.27;23.60;;;2.80;99.90;;;;;;5067418;28;20438;-66
2021/01/05 05:58:58;;;;;;;30.67;21.10;;;2.80;99.90;;;;;;5028206;28;20445;-65
2021/01/05 06:01:32;;;;;;;28.70;21.20;;;2.80;99.90;;;;;;5035549;28;20439;-65
2021/01/05 06:03:59;;;;;;;33.83;22.97;;;2.80;99.90;;;;;;5062701;28;20509;-65
2021/01/05 06:06:26;;;;;;;31.10;21.50;;;2.80;99.90;;;;;;5058149;28;20587;-65
2021/01/05 06:08:51;;;;;;;33.37;21.67;;;2.80;99.90;;;;;;5065263;28;20465;-65
2021/01/05 06:11:17;;;;;;;33.83;21.10;;;2.80;99.90;;;;;;5036937;28;20966;-65
2021/01/05 06:13:42;;;;;;;29.20;21.83;;;2.80;99.90;;;;;;5067156;28;20260;-65
2021/01/05 06:16:08;;;;;;;28.80;22.23;;;2.80;99.90;;;;;;5063954;28;20196;-65
2021/01/05 06:18:33;;;;;;;35.03;22.27;;;2.80;99.90;;;;;;5066555;28;20191;-67
2021/01/05 06:20:59;;;;;;;32.33;22.33;;;2.80;99.90;;;;;;5063385;28;20653;-65
2021/01/05 06:23:24;;;;;;;32.20;23.73;;;2.80;99.90;;;;;;5059660;28;20187;-65
2021/01/05 06:25:50;;;;;;;31.23;22.67;;;2.80;99.90;;;;;;5059731;28;20735;-65
2021/01/05 06:28:15;;;;;;;32.67;24.57;;;2.90;99.90;;;;;;5063354;28;20321;-65
2021/01/05 06:30:41;;;;;;;31.47;22.10;;;2.90;99.90;;;;;;5062719;28;20211;-65
2021/01/05 06:33:07;;;;;;;32.80;22.70;;;2.90;99.90;;;;;;5066794;28;20179;-65
2021/01/05 06:35:32;;;;;;;35.23;22.43;;;2.90;99.90;;;;;;5062996;28;20184;-65
2021/01/05 06:37:58;;;;;;;33.87;21.50;;;2.90;99.90;;;;;;5064197;28;20275;-65
2021/01/05 06:40:26;;;;;;;34.63;23.90;;;2.90;99.90;;;;;;5067590;28;20458;-65
2021/01/05 06:42:51;;;;;;;32.60;23.57;;;2.80;99.90;;;;;;5067345;28;20628;-64
2021/01/05 06:45:28;;;;;;;33.00;22.40;;;2.90;99.90;;;;;;5067011;28;20463;-65
2021/01/05 06:47:54;;;;;;;29.40;21.13;;;2.90;99.90;;;;;;5043277;28;20438;-65
2021/01/05 06:50:23;;;;;;;30.70;24.07;;;2.90;99.90;;;;;;5062645;28;20735;-65
2021/01/05 06:52:48;;;;;;;32.00;22.63;;;2.80;99.90;;;;;;5061776;28;20464;-65
2021/01/05 06:55:14;;;;;;;31.93;22.93;;;2.80;99.90;;;;;;5066879;28;21025;-65
2021/01/05 06:57:39;;;;;;;30.67;23.10;;;2.80;99.90;;;;;;5065818;28;20180;-65
2021/01/05 07:00:07;;;;;;;31.20;22.87;;;2.80;99.90;;;;;;5066178;28;20306;-65
2021/01/05 07:02:32;;;;;;;33.40;23.40;;;2.80;99.90;;;;;;5063384;28;20877;-65
2021/01/05 07:04:58;;;;;;;34.20;23.10;;;2.80;99.90;;;;;;5065423;28;20536;-65
2021/01/05 07:07:23;;;;;;;32.37;22.87;;;2.80;99.90;;;;;;5062661;28;20184;-65
2021/01/05 07:09:49;;;;;;;30.77;21.67;;;2.90;99.90;;;;;;5065899;28;20729;-65
2021/01/05 07:12:14;;;;;;;28.13;20.70;;;2.90;99.90;;;;;;5065573;28;20244;-65
2021/01/05 07:14:40;;;;;;;31.40;22.53;;;2.90;99.90;;;;;;5064151;28;20532;-65
2021/01/05 07:17:05;;;;;;;37.40;24.00;;;3.00;99.90;;;;;;5062162;28;20219;-65
2021/01/05 07:19:31;;;;;;;34.77;22.90;;;3.00;99.90;;;;;;5066044;28;20626;-65
2021/01/05 07:21:56;;;;;;;35.63;22.30;;;3.00;99.90;;;;;;5062415;28;20199;-65
2021/01/05 07:24:22;;;;;;;32.90;22.23;;;3.00;99.90;;;;;;5064827;28;20241;-65
2021/01/05 07:26:50;;;;;;;34.03;22.80;;;3.00;99.90;;;;;;5063654;28;20183;-65
2021/01/05 07:29:20;;;;;;;32.77;23.57;;;3.00;99.90;;;;;;5062428;28;20255;-65
2021/01/05 07:31:47;;;;;;;28.73;20.97;;;3.10;99.90;;;;;;5066277;28;20442;-65
2021/01/05 07:34:13;;;;;;;31.97;21.43;;;3.10;99.90;;;;;;5037887;28;20454;-65
2021/01/05 07:36:46;;;;;;;33.40;21.70;;;3.10;99.90;;;;;;5064087;28;20429;-65
2021/01/05 07:39:18;;;;;;;32.87;20.33;;;3.10;99.90;;;;;;5063178;28;20254;-65
2021/01/05 07:41:44;;;;;;;31.77;22.30;;;3.10;99.90;;;;;;5063608;28;20451;-65
2021/01/05 07:44:09;;;;;;;31.10;21.87;;;3.00;99.90;;;;;;5063482;28;20504;-65
2021/01/05 07:46:35;;;;;;;31.13;22.53;;;3.00;99.90;;;;;;5061529;28;20188;-65
2021/01/05 07:49:00;;;;;;;29.10;20.30;;;3.00;99.90;;;;;;5062443;28;20207;-65
2021/01/05 07:51:26;;;;;;;34.10;24.07;;;3.00;99.90;;;;;;5067387;28;20188;-65
2021/01/05 07:53:51;;;;;;;36.37;23.70;;;3.00;99.90;;;;;;5046651;28;20554;-65
2021/01/05 07:56:17;;;;;;;32.73;21.40;;;3.00;99.90;;;;;;5062884;28;20204;-65
2021/01/05 07:58:43;;;;;;;33.20;22.83;;;3.00;99.90;;;;;;5066165;28;20444;-65
2021/01/05 08:01:08;;;;;;;35.27;21.20;;;3.00;99.90;;;;;;5062725;28;20667;-65
2021/01/05 08:03:34;;;;;;;35.07;23.40;;;3.00;99.90;;;;;;5062076;28;20276;-65
2021/01/05 08:06:02;;;;;;;34.90;23.13;;;3.00;99.90;;;;;;5063344;28;20200;-65
2021/01/05 08:08:28;;;;;;;39.70;23.17;;;3.00;99.90;;;;;;5065333;28;20188;-66
2021/01/05 08:10:53;;;;;;;30.30;21.23;;;3.00;99.90;;;;;;5062892;28;20452;-67
2021/01/05 08:13:19;;;;;;;35.23;23.77;;;3.00;99.90;;;;;;5059963;28;20180;-65
2021/01/05 08:15:44;;;;;;;33.63;21.93;;;3.10;99.90;;;;;;5062816;28;20244;-66
2021/01/05 08:18:10;;;;;;;33.83;21.67;;;3.10;99.90;;;;;;5066442;28;20195;-66
2021/01/05 08:20:36;;;;;;;30.77;22.27;;;3.10;99.90;;;;;;5066610;28;20203;-66
2021/01/05 08:23:03;;;;;;;31.83;22.07;;;3.10;99.90;;;;;;5068316;28;20438;-66
2021/01/05 08:25:30;;;;;;;27.50;20.43;;;3.10;99.90;;;;;;5068812;28;20584;-66
2021/01/05 08:27:56;;;;;;;32.03;21.50;;;3.10;99.90;;;;;;5062376;28;20492;-66
2021/01/05 08:30:24;;;;;;;29.07;19.73;;;3.10;99.90;;;;;;5067308;28;20493;-67
2021/01/05 08:32:51;;;;;;;26.87;20.37;;;3.10;99.90;;;;;;5068114;28;20290;-66
2021/01/05 08:35:20;;;;;;;29.07;19.80;;;3.10;99.90;;;;;;5068747;28;20436;-66
2021/01/05 08:37:45;;;;;;;34.13;23.20;;;3.10;99.90;;;;;;5063371;28;20470;-65
2021/01/05 08:40:16;;;;;;;28.90;20.07;;;3.20;99.90;;;;;;5065873;28;20501;-66
2021/01/05 08:42:42;;;;;;;32.73;22.37;;;3.20;99.90;;;;;;5065549;28;20192;-66
2021/01/05 08:45:09;;;;;;;27.90;21.30;;;3.30;99.90;;;;;;5068805;28;20433;-66
2021/01/05 08:47:34;;;;;;;37.67;23.20;;;3.20;99.90;;;;;;5068030;28;20239;-65
2021/01/05 08:50:00;;;;;;;31.97;21.33;;;3.20;99.90;;;;;;5064047;28;20556;-66
2021/01/05 08:52:26;;;;;;;33.07;22.47;;;3.20;99.90;;;;;;5067691;28;20238;-66
2021/01/05 08:54:51;;;;;;;35.97;24.63;;;3.20;99.90;;;;;;5066622;28;20180;-66
2021/01/05 08:57:17;;;;;;;33.27;23.90;;;3.20;99.90;;;;;;5064547;28;20182;-66
2021/01/05 08:59:45;;;;;;;28.57;20.77;;;3.20;99.90;;;;;;5068391;28;20214;-66
2021/01/05 09:02:11;;;;;;;34.33;22.97;;;3.20;99.90;;;;;;5069121;28;20392;-66
2021/01/05 09:04:36;;;;;;;33.97;20.80;;;3.20;99.90;;;;;;5064779;28;20530;-66
2021/01/05 09:07:03;;;;;;;33.53;23.57;;;3.20;99.90;;;;;;5068496;28;20190;-66
2021/01/05 09:09:29;;;;;;;40.27;22.03;;;3.20;99.90;;;;;;5067705;28;20680;-66
2021/01/05 09:11:56;;;;;;;33.17;23.47;;;3.20;99.90;;;;;;5068722;28;20487;-66
2021/01/05 09:14:23;;;;;;;30.70;23.20;;;3.20;99.90;;;;;;5064675;28;20190;-66
2021/01/05 09:16:56;;;;;;;37.80;23.67;;;3.20;99.90;;;;;;5063282;28;20480;-66
2021/01/05 09:19:21;;;;;;;37.37;24.30;;;3.20;99.90;;;;;;5044767;28;20440;-66
2021/01/05 09:21:47;;;;;;;34.93;23.63;;;3.30;99.90;;;;;;5068032;28;20919;-66
2021/01/05 09:24:13;;;;;;;36.50;23.13;;;3.30;99.90;;;;;;5065859;28;20692;-66
2021/01/05 09:26:38;;;;;;;36.23;23.20;;;3.20;99.90;;;;;;5062032;28;20525;-66
2021/01/05 09:29:09;;;;;;;32.37;22.13;;;3.20;99.90;;;;;;5067759;28;20278;-66
2021/01/05 09:31:42;;;;;;;34.13;22.77;;;3.20;99.90;;;;;;5067587;28;20633;-66
2021/01/05 09:34:08;;;;;;;33.47;21.03;;;3.20;99.90;;;;;;5066824;28;21164;-66
2021/01/05 09:36:34;;;;;;;37.40;23.60;;;3.20;99.90;;;;;;5062980;28;20521;-66
2021/01/05 09:39:02;;;;;;;34.40;22.50;;;3.20;99.90;;;;;;5069723;28;20541;-66
2021/01/05 09:41:31;;;;;;;29.60;20.80;;;3.20;99.90;;;;;;5062920;28;20438;-66
2021/01/05 09:43:57;;;;;;;31.60;21.17;;;3.20;99.90;;;;;;5069301;28;20476;-66
2021/01/05 09:46:23;;;;;;;33.30;21.43;;;3.30;99.90;;;;;;5062835;28;20482;-66
2021/01/05 09:48:50;;;;;;;33.20;22.60;;;3.30;99.90;;;;;;5062874;28;20271;-66
2021/01/05 09:51:27;;;;;;;34.10;21.17;;;3.30;99.90;;;;;;5041007;28;20818;-66
2021/01/05 09:53:53;;;;;;;30.23;20.87;;;3.30;99.90;;;;;;5067716;28;20504;-66
2021/01/05 09:56:19;;;;;;;35.10;23.33;;;3.20;99.90;;;;;;5065408;28;20880;-66
2021/01/05 09:58:45;;;;;;;34.73;22.80;;;3.30;99.90;;;;;;5068055;28;20725;-66
2021/01/05 10:01:12;;;;;;;30.37;21.77;;;3.30;99.90;;;;;;5063983;28;20487;-66
2021/01/05 10:03:37;;;;;;;33.70;22.33;;;3.30;99.90;;;;;;5065187;28;20434;-66
2021/01/05 10:06:03;;;;;;;34.83;21.90;;;3.30;99.90;;;;;;5063484;28;20954;-66
2021/01/05 10:08:29;;;;;;;27.90;20.67;;;3.30;99.90;;;;;;5063950;28;20298;-66
2021/01/05 10:10:55;;;;;;;35.00;24.70;;;3.30;99.90;;;;;;5068444;28;20191;-66
2021/01/05 10:13:20;;;;;;;34.73;22.37;;;3.30;99.90;;;;;;5063468;28;20266;-66
2021/01/05 10:15:46;;;;;;;31.50;22.97;;;3.30;99.90;;;;;;5062698;28;20180;-66
2021/01/05 10:18:11;;;;;;;37.80;23.53;;;3.30;99.90;;;;;;5062623;28;21155;-66
2021/01/05 10:20:37;;;;;;;28.00;21.03;;;3.30;99.90;;;;;;5065286;28;20183;-66
2021/01/05 10:23:02;;;;;;;33.20;21.83;;;3.40;99.90;;;;;;5048113;28;20179;-66
2021/01/05 10:25:28;;;;;;;35.97;23.20;;;3.40;99.90;;;;;;5044473;28;20233;-66
2021/01/05 10:27:53;;;;;;;37.30;24.93;;;3.40;99.90;;;;;;5061780;28;20184;-66
2021/01/05 10:30:20;;;;;;;35.93;23.30;;;3.40;99.90;;;;;;5062774;28;20261;-66
2021/01/05 10:32:46;;;;;;;37.17;24.03;;;3.50;99.90;;;;;;5062367;28;20271;-66
2021/01/05 10:35:16;;;;;;;30.93;24.00;;;3.50;99.90;;;;;;5064737;28;20566;-66
2021/01/05 10:37:44;;;;;;;35.33;23.50;;;3.50;99.90;;;;;;5064744;28;20430;-66
2021/01/05 10:40:10;;;;;;;34.30;23.97;;;3.50;99.90;;;;;;5064867;28;20786;-66
2021/01/05 10:42:40;;;;;;;35.37;22.90;;;3.50;99.90;;;;;;5065495;28;20803;-66
2021/01/05 10:45:07;;;;;;;36.30;24.03;;;3.50;99.90;;;;;;5060371;28;20461;-66
2021/01/05 10:47:33;;;;;;;35.50;23.40;;;3.50;99.90;;;;;;5040001;28;20430;-66
2021/01/05 10:49:59;;;;;;;36.40;24.23;;;3.50;99.90;;;;;;5067285;28;20469;-66
2021/01/05 10:52:25;;;;;;;34.80;22.50;;;3.50;99.90;;;;;;5064207;28;20191;-66
2021/01/05 10:54:50;;;;;;;38.03;23.90;;;3.50;99.90;;;;;;5064288;28;20785;-66
2021/01/05 10:57:17;;;;;;;38.47;24.70;;;3.50;99.90;;;;;;5065479;28;20310;-66
2021/01/05 10:59:42;;;;;;;33.27;22.87;;;3.50;99.90;;;;;;5066769;28;20535;-66
2021/01/05 11:02:09;;;;;;;33.87;25.30;;;3.50;99.90;;;;;;5064333;28;20442;-65
2021/01/05 11:04:35;;;;;;;33.57;22.10;;;3.50;99.90;;;;;;5061681;28;20279;-66
2021/01/05 11:07:03;;;;;;;36.90;24.50;;;3.50;99.90;;;;;;5067344;28;20425;-66
2021/01/05 11:09:29;;;;;;;32.67;23.13;;;3.50;99.90;;;;;;5065550;28;20449;-66
2021/01/05 11:12:00;;;;;;;29.50;22.27;;;3.50;99.90;;;;;;5063575;28;20453;-66
2021/01/05 11:14:26;;;;;;;34.00;23.60;;;3.50;99.90;;;;;;5062858;28;20187;-66
2021/01/05 11:16:52;;;;;;;37.10;23.63;;;3.50;99.90;;;;;;5063664;28;20952;-66
2021/01/05 11:19:18;;;;;;;35.80;23.50;;;3.60;99.90;;;;;;5065924;28;20433;-66
2021/01/05 11:21:51;;;;;;;28.60;21.57;;;3.60;99.90;;;;;;5066752;28;20464;-66
2021/01/05 11:24:17;;;;;;;35.90;23.03;;;3.60;99.90;;;;;;5064579;28;20437;-66
2021/01/05 11:26:42;;;;;;;34.00;23.70;;;3.60;99.90;;;;;;5064758;28;20449;-66
2021/01/05 11:29:08;;;;;;;35.17;23.70;;;3.60;99.90;;;;;;5033060;28;20196;-66
2021/01/05 11:31:33;;;;;;;32.77;23.10;;;3.60;99.90;;;;;;5067735;28;20282;-66
2021/01/05 11:33:59;;;;;;;30.77;22.80;;;3.60;99.90;;;;;;5064450;28;20307;-65
2021/01/05 11:36:29;;;;;;;31.10;21.67;;;3.60;99.90;;;;;;5044602;28;20731;-66
2021/01/05 11:38:56;;;;;;;34.80;23.40;;;3.60;99.90;;;;;;5060363;28;22234;-65
2021/01/05 11:41:31;;;;;;;32.07;24.23;;;3.70;99.90;;;;;;5065589;28;20433;-66
2021/01/05 11:43:57;;;;;;;30.73;23.40;;;3.60;99.90;;;;;;5064798;28;20539;-66
2021/01/05 11:46:23;;;;;;;31.73;22.70;;;3.70;99.90;;;;;;5062579;28;20745;-66
2021/01/05 11:48:50;;;;;;;34.70;23.23;;;3.60;99.90;;;;;;5062546;28;20786;-66
2021/01/05 11:51:18;;;;;;;33.73;23.10;;;3.70;99.90;;;;;;5064698;28;20448;-67
2021/01/05 11:53:43;;;;;;;43.87;24.90;;;3.70;99.90;;;;;;5069119;28;20490;-66
2021/01/05 11:56:15;;;;;;;35.00;22.57;;;3.70;99.90;;;;;;5064914;28;20445;-66
2021/01/05 11:58:41;;;;;;;33.47;21.93;;;3.70;99.90;;;;;;5068804;28;20353;-66
2021/01/05 12:01:06;;;;;;;32.37;21.60;;;3.70;99.90;;;;;;5066663;28;20490;-66
2021/01/05 12:03:32;;;;;;;40.00;24.80;;;3.60;99.90;;;;;;5046508;28;20179;-66
2021/01/05 12:05:57;;;;;;;32.20;23.17;;;3.60;99.90;;;;;;5071445;28;20229;-66
2021/01/05 12:08:23;;;;;;;31.70;22.20;;;3.50;99.90;;;;;;5067697;28;20255;-66
2021/01/05 12:10:48;;;;;;;35.13;22.37;;;3.60;99.90;;;;;;5067291;28;20537;-66
2021/01/05 12:13:14;;;;;;;30.83;23.33;;;3.60;99.90;;;;;;5064616;28;20194;-66
2021/01/05 12:15:42;;;;;;;30.80;21.83;;;3.60;99.90;;;;;;5068188;28;20176;-66
2021/01/05 12:18:08;;;;;;;32.53;23.77;;;3.60;99.90;;;;;;5066420;28;20241;-66
2021/01/05 12:20:33;;;;;;;33.80;22.77;;;3.60;99.90;;;;;;5067755;28;20928;-66
2021/01/05 12:22:58;;;;;;;28.87;20.60;;;3.70;99.90;;;;;;5065839;28;20232;-66
2021/01/05 12:25:24;;;;;;;31.03;22.10;;;3.60;99.90;;;;;;5068976;28;20195;-66
2021/01/05 12:27:49;;;;;;;30.37;22.03;;;3.70;99.90;;;;;;5064727;28;20202;-66
2021/01/05 12:30:15;;;;;;;30.13;20.90;;;3.60;99.90;;;;;;5067464;28;20659;-66
2021/01/05 12:32:41;;;;;;;34.77;23.47;;;3.60;99.90;;;;;;5066711;28;20285;-66
2021/01/05 12:35:07;;;;;;;27.50;21.77;;;3.60;99.90;;;;;;5066783;28;20636;-66
2021/01/05 12:37:33;;;;;;;32.03;22.20;;;3.60;99.90;;;;;;5068083;28;20180;-66
2021/01/05 12:39:58;;;;;;;29.50;21.63;;;3.60;99.90;;;;;;5066278;28;20466;-66
2021/01/05 12:42:26;;;;;;;37.10;24.30;;;3.60;99.90;;;;;;5067419;28;20196;-66
2021/01/05 12:44:52;;;;;;;29.93;21.40;;;3.70;99.90;;;;;;5065804;28;20191;-66
2021/01/05 12:47:19;;;;;;;26.73;20.87;;;3.70;99.90;;;;;;5068009;28;20556;-66
2021/01/05 12:49:46;;;;;;;28.63;20.00;;;3.60;99.90;;;;;;5066487;28;20560;-66